sensor_id;sensor_type;location;lat;lon;timestamp;pressure;altitude;pressure_sealevel;temperature;humidity
41830;BME280;38614;43.472;23.936;2023-01-30T00:01:15;100745.59;;;0.79;100.00
41830;BME280;38614;43.472;23.936;2023-01-30T00:04:05;100738.78;;;0.87;100.00
41830;BME280;38614;43.472;23.936;2023-01-30T00:06:53;100761.06;;;0.89;100.00
41830;BME280;38614;43.472;23.936;2023-01-30T00:09:41;100708.16;;;0.61;100.00
41830;BME280;38614;43.472;23.936;2023-01-30T00:12:28;100716.06;;;0.52;100.00
41830;BME280;38614;43.472;23.936;2023-01-30T00:15:16;100714.94;;;0.68;100.00
41830;BME280;38614;43.472;23.936;2023-01-30T00:18:04;100761.59;;;0.91;100.00
41830;BME280;38614;43.472;23.936;2023-01-30T00:20:59;100733.72;;;0.60;100.00
41830;BME280;38614;43.472;23.936;2023-01-30T00:23:46;100757.59;;;0.78;100.00
41830;BME280;38614;43.472;23.936;2023-01-30T00:26:34;100744.56;;;0.75;100.00
41830;BME280;38614;43.472;23.936;2023-01-30T00:29:22;100761.06;;;0.89;100.00
41830;BME280;38614;43.472;23.936;2023-01-30T00:32:10;100754.00;;;0.82;100.00
41830;BME280;38614;43.472;23.936;2023-01-30T00:34:59;100668.84;;;0.33;100.00
41830;BME280;38614;43.472;23.936;2023-01-30T00:37:47;100746.41;;;0.79;100.00
41830;BME280;38614;43.472;23.936;2023-01-30T00:40:35;100713.34;;;0.57;100.00
41830;BME280;38614;43.472;23.936;2023-01-30T00:43:23;100742.09;;;0.73;100.00
41830;BME280;38614;43.472;23.936;2023-01-30T00:46:31;100720.66;;;0.62;100.00
41830;BME280;38614;43.472;23.936;2023-01-30T00:49:38;100737.19;;;0.75;100.00
41830;BME280;38614;43.472;23.936;2023-01-30T00:52:26;100730.38;;;0.73;100.00
41830;BME280;38614;43.472;23.936;2023-01-30T00:55:14;100713.06;;;0.53;100.00
41830;BME280;38614;43.472;23.936;2023-01-30T00:58:03;100732.00;;;0.74;100.00
41830;BME280;38614;43.472;23.936;2023-01-30T01:00:51;100724.94;;;0.73;100.00
41830;BME280;38614;43.472;23.936;2023-01-30T01:03:39;100732.59;;;0.71;100.00
41830;BME280;38614;43.472;23.936;2023-01-30T01:06:27;100727.16;;;0.71;100.00
41830;BME280;38614;43.472;23.936;2023-01-30T01:09:15;100704.34;;;0.62;100.00
41830;BME280;38614;43.472;23.936;2023-01-30T01:12:04;100714.94;;;0.63;100.00
41830;BME280;38614;43.472;23.936;2023-01-30T01:14:51;100705.41;;;0.66;100.00
41830;BME280;38614;43.472;23.936;2023-01-30T01:17:41;100671.19;;;0.54;100.00
41830;BME280;38614;43.472;23.936;2023-01-30T01:20:29;100674.19;;;0.53;100.00
41830;BME280;38614;43.472;23.936;2023-01-30T01:23:17;100694.81;;;0.64;100.00
41830;BME280;38614;43.472;23.936;2023-01-30T01:26:05;100671.22;;;0.49;100.00
41830;BME280;38614;43.472;23.936;2023-01-30T01:28:57;100689.34;;;0.64;100.00
41830;BME280;38614;43.472;23.936;2023-01-30T01:31:45;100666.53;;;0.60;100.00
41830;BME280;38614;43.472;23.936;2023-01-30T01:34:34;100671.75;;;0.51;100.00
41830;BME280;38614;43.472;23.936;2023-01-30T01:37:22;100683.69;;;0.61;100.00
41830;BME280;38614;43.472;23.936;2023-01-30T01:40:17;100673.38;;;0.57;100.00
41830;BME280;38614;43.472;23.936;2023-01-30T01:43:29;100685.31;;;0.62;100.00
41830;BME280;38614;43.472;23.936;2023-01-30T01:46:22;100681.19;;;0.64;100.00
41830;BME280;38614;43.472;23.936;2023-01-30T01:49:20;100581.16;;;0.07;100.00
41830;BME280;38614;43.472;23.936;2023-01-30T01:52:12;100673.03;;;0.69;100.00
41830;BME280;38614;43.472;23.936;2023-01-30T01:55:04;100674.66;;;0.70;100.00
41830;BME280;38614;43.472;23.936;2023-01-30T01:57:59;100678.16;;;0.76;100.00
41830;BME280;38614;43.472;23.936;2023-01-30T02:00:50;100666.78;;;0.64;100.00
41830;BME280;38614;43.472;23.936;2023-01-30T02:03:41;100669.50;;;0.69;100.00
41830;BME280;38614;43.472;23.936;2023-01-30T02:06:31;100673.81;;;0.75;100.00
41830;BME280;38614;43.472;23.936;2023-01-30T02:09:20;100660.25;;;0.70;100.00
41830;BME280;38614;43.472;23.936;2023-01-30T02:12:08;100645.31;;;0.62;100.00
41830;BME280;38614;43.472;23.936;2023-01-30T02:14:58;100665.59;;;0.85;100.00
41830;BME280;38614;43.472;23.936;2023-01-30T02:17:47;100661.25;;;0.84;100.00
41830;BME280;38614;43.472;23.936;2023-01-30T02:37:08;100657.22;;;0.71;100.00
41830;BME280;38614;43.472;23.936;2023-01-30T02:46:19;100622.00;;;0.46;100.00
41830;BME280;38614;43.472;23.936;2023-01-30T02:52:10;100635.78;;;0.65;100.00
41830;BME280;38614;43.472;23.936;2023-01-30T02:54:59;100658.56;;;0.79;100.00
41830;BME280;38614;43.472;23.936;2023-01-30T02:57:49;100620.56;;;0.64;100.00
41830;BME280;38614;43.472;23.936;2023-01-30T03:04:13;100623.03;;;0.55;100.00
41830;BME280;38614;43.472;23.936;2023-01-30T03:16:39;100650.16;;;0.70;100.00
41830;BME280;38614;43.472;23.936;2023-01-30T03:19:31;100634.44;;;0.62;100.00
41830;BME280;38614;43.472;23.936;2023-01-30T03:22:20;100649.34;;;0.75;100.00
41830;BME280;38614;43.472;23.936;2023-01-30T03:25:10;100648.25;;;0.71;100.00
41830;BME280;38614;43.472;23.936;2023-01-30T03:28:01;100621.69;;;0.57;100.00
41830;BME280;38614;43.472;23.936;2023-01-30T03:30:50;100655.59;;;0.75;100.00
41830;BME280;38614;43.472;23.936;2023-01-30T03:33:39;100649.34;;;0.75;100.00
41830;BME280;38614;43.472;23.936;2023-01-30T03:36:27;100647.72;;;0.69;100.00
41830;BME280;38614;43.472;23.936;2023-01-30T03:39:18;100634.44;;;0.62;100.00
41830;BME280;38614;43.472;23.936;2023-01-30T03:42:16;100629.53;;;0.64;100.00
41830;BME280;38614;43.472;23.936;2023-01-30T03:45:04;100640.97;;;0.66;100.00
41830;BME280;38614;43.472;23.936;2023-01-30T03:47:52;100625.44;;;0.67;100.00
41830;BME280;38614;43.472;23.936;2023-01-30T03:50:40;100617.91;;;0.53;100.00
41830;BME280;38614;43.472;23.936;2023-01-30T03:53:30;100629.00;;;0.62;100.00
41830;BME280;38614;43.472;23.936;2023-01-30T03:56:18;100637.94;;;0.68;100.00
41830;BME280;38614;43.472;23.936;2023-01-30T03:59:06;100632.81;;;0.61;100.00
41830;BME280;38614;43.472;23.936;2023-01-30T04:02:03;100640.41;;;0.64;100.00
41830;BME280;38614;43.472;23.936;2023-01-30T04:04:52;100631.97;;;0.66;100.00
41830;BME280;38614;43.472;23.936;2023-01-30T04:07:40;100645.53;;;0.71;100.00
41830;BME280;38614;43.472;23.936;2023-01-30T04:10:29;100632.25;;;0.64;100.00
41830;BME280;38614;43.472;23.936;2023-01-30T04:13:17;100636.63;;;0.60;100.00
41830;BME280;38614;43.472;23.936;2023-01-30T04:16:20;100626.06;;;0.53;100.00
41830;BME280;38614;43.472;23.936;2023-01-30T04:19:28;100629.81;;;0.63;100.00
41830;BME280;38614;43.472;23.936;2023-01-30T04:22:18;100595.91;;;0.50;100.00
41830;BME280;38614;43.472;23.936;2023-01-30T04:25:07;100626.78;;;0.69;100.00
41830;BME280;38614;43.472;23.936;2023-01-30T04:27:56;100622.16;;;0.65;100.00
41830;BME280;38614;43.472;23.936;2023-01-30T04:30:48;100597.53;;;0.46;100.00
41830;BME280;38614;43.472;23.936;2023-01-30T04:34:08;100611.34;;;0.54;100.00
41830;BME280;38614;43.472;23.936;2023-01-30T04:36:58;100611.09;;;0.56;100.00
41830;BME280;38614;43.472;23.936;2023-01-30T04:39:47;100611.03;;;0.66;100.00
41830;BME280;38614;43.472;23.936;2023-01-30T04:42:37;100606.50;;;0.51;100.00
41830;BME280;38614;43.472;23.936;2023-01-30T04:45:44;100619.22;;;0.61;100.00
41830;BME280;38614;43.472;23.936;2023-01-30T04:48:36;100608.31;;;0.66;100.00
41830;BME280;38614;43.472;23.936;2023-01-30T04:51:24;100572.00;;;0.47;100.00
41830;BME280;38614;43.472;23.936;2023-01-30T04:54:11;100584.81;;;0.36;100.00
41830;BME280;38614;43.472;23.936;2023-01-30T04:57:00;100596.41;;;0.52;100.00
41830;BME280;38614;43.472;23.936;2023-01-30T04:59:48;100594.81;;;0.46;100.00
41830;BME280;38614;43.472;23.936;2023-01-30T05:02:48;100583.41;;;0.49;100.00
41830;BME280;38614;43.472;23.936;2023-01-30T05:05:36;100607.81;;;0.54;100.00
41830;BME280;38614;43.472;23.936;2023-01-30T05:08:27;100600.25;;;0.51;100.00
41830;BME280;38614;43.472;23.936;2023-01-30T05:11:15;100618.69;;;0.59;100.00
41830;BME280;38614;43.472;23.936;2023-01-30T05:14:08;100619.81;;;0.53;100.00
41830;BME280;38614;43.472;23.936;2023-01-30T05:16:58;100609.78;;;0.48;100.00
41830;BME280;38614;43.472;23.936;2023-01-30T05:19:46;100611.63;;;0.53;100.00
41830;BME280;38614;43.472;23.936;2023-01-30T05:22:34;100618.19;;;0.52;100.00
41830;BME280;38614;43.472;23.936;2023-01-30T05:25:24;100620.59;;;0.53;100.00
41830;BME280;38614;43.472;23.936;2023-01-30T05:28:11;100622.28;;;0.49;100.00
41830;BME280;38614;43.472;23.936;2023-01-30T05:31:12;100599.72;;;0.44;100.00
41830;BME280;38614;43.472;23.936;2023-01-30T05:34:00;100618.41;;;0.61;100.00
41830;BME280;38614;43.472;23.936;2023-01-30T05:36:48;100629.03;;;0.57;100.00
41830;BME280;38614;43.472;23.936;2023-01-30T05:39:36;100626.56;;;0.55;100.00
41830;BME280;38614;43.472;23.936;2023-01-30T05:42:24;100606.31;;;0.38;100.00
41830;BME280;38614;43.472;23.936;2023-01-30T05:45:11;100593.25;;;0.35;100.00
41830;BME280;38614;43.472;23.936;2023-01-30T05:47:59;100620.38;;;0.50;100.00
41830;BME280;38614;43.472;23.936;2023-01-30T05:50:52;100624.72;;;0.51;100.00
41830;BME280;38614;43.472;23.936;2023-01-30T05:53:40;100619.81;;;0.53;100.00
41830;BME280;38614;43.472;23.936;2023-01-30T05:56:28;100626.56;;;0.61;100.00
41830;BME280;38614;43.472;23.936;2023-01-30T05:59:19;100627.16;;;0.52;100.00
41830;BME280;38614;43.472;23.936;2023-01-30T06:02:07;100621.94;;;0.61;100.00
41830;BME280;38614;43.472;23.936;2023-01-30T06:04:57;100600.88;;;0.38;100.00
41830;BME280;38614;43.472;23.936;2023-01-30T06:07:44;100621.75;;;0.47;100.00
41830;BME280;38614;43.472;23.936;2023-01-30T06:10:33;100622.78;;;0.56;100.00
41830;BME280;38614;43.472;23.936;2023-01-30T06:13:21;100621.47;;;0.49;100.00
41830;BME280;38614;43.472;23.936;2023-01-30T06:16:11;100621.41;;;0.54;100.00
41830;BME280;38614;43.472;23.936;2023-01-30T06:19:00;100626.31;;;0.57;100.00
41830;BME280;38614;43.472;23.936;2023-01-30T06:21:48;100632.34;;;0.49;100.00
41830;BME280;38614;43.472;23.936;2023-01-30T06:24:38;100550.75;;;0.05;100.00
41830;BME280;38614;43.472;23.936;2023-01-30T06:27:29;100643.16;;;0.59;100.00
41830;BME280;38614;43.472;23.936;2023-01-30T06:30:18;100633.06;;;0.65;100.00
41830;BME280;38614;43.472;23.936;2023-01-30T06:33:24;100638.25;;;0.61;100.00
41830;BME280;38614;43.472;23.936;2023-01-30T06:36:11;100637.97;;;0.63;100.00
41830;BME280;38614;43.472;23.936;2023-01-30T06:39:02;100644.47;;;0.67;100.00
41830;BME280;38614;43.472;23.936;2023-01-30T06:41:50;100645.53;;;0.76;100.00
41830;BME280;38614;43.472;23.936;2023-01-30T06:47:25;100654.78;;;0.70;100.00
41830;BME280;38614;43.472;23.936;2023-01-30T06:50:14;100650.91;;;0.81;100.00
41830;BME280;38614;43.472;23.936;2023-01-30T06:53:04;100648.50;;;0.74;100.00
41830;BME280;38614;43.472;23.936;2023-01-30T06:55:53;100660.41;;;0.83;100.00
41830;BME280;38614;43.472;23.936;2023-01-30T06:58:40;100652.75;;;0.91;100.00
41830;BME280;38614;43.472;23.936;2023-01-30T07:01:28;100651.94;;;0.95;100.00
41830;BME280;38614;43.472;23.936;2023-01-30T07:04:16;100644.38;;;0.82;100.00
41830;BME280;38614;43.472;23.936;2023-01-30T07:07:04;100655.75;;;0.89;100.00
41830;BME280;38614;43.472;23.936;2023-01-30T07:09:53;100647.56;;;0.94;100.00
41830;BME280;38614;43.472;23.936;2023-01-30T07:12:54;100649.19;;;0.95;100.00
41830;BME280;38614;43.472;23.936;2023-01-30T07:15:42;100628.03;;;0.87;100.00
41830;BME280;38614;43.472;23.936;2023-01-30T07:18:30;100648.34;;;1.00;100.00
41830;BME280;38614;43.472;23.936;2023-01-30T07:21:18;100647.25;;;1.01;100.00
41830;BME280;38614;43.472;23.936;2023-01-30T07:24:06;100640.44;;;1.03;100.00
41830;BME280;38614;43.472;23.936;2023-01-30T07:26:54;100622.22;;;0.99;100.00
41830;BME280;38614;43.472;23.936;2023-01-30T07:29:42;100642.41;;;1.27;100.00
41830;BME280;38614;43.472;23.936;2023-01-30T07:32:31;100638.09;;;1.21;100.00
41830;BME280;38614;43.472;23.936;2023-01-30T07:35:19;100644.16;;;1.47;100.00
41830;BME280;38614;43.472;23.936;2023-01-30T07:38:07;100640.94;;;1.39;100.00
41830;BME280;38614;43.472;23.936;2023-01-30T07:40:56;100626.78;;;1.42;100.00
41830;BME280;38614;43.472;23.936;2023-01-30T07:43:45;100634.94;;;1.42;100.00
41830;BME280;38614;43.472;23.936;2023-01-30T07:46:34;100633.59;;;1.40;100.00
41830;BME280;38614;43.472;23.936;2023-01-30T07:49:22;100635.84;;;1.62;100.00
41830;BME280;38614;43.472;23.936;2023-01-30T07:52:10;100609.53;;;1.52;100.00
41830;BME280;38614;43.472;23.936;2023-01-30T07:54:58;100629.59;;;1.61;100.00
41830;BME280;38614;43.472;23.936;2023-01-30T07:57:47;100616.91;;;1.47;100.00
41830;BME280;38614;43.472;23.936;2023-01-30T08:00:35;100629.25;;;1.68;100.00
41830;BME280;38614;43.472;23.936;2023-01-30T08:03:23;100619.25;;;1.87;100.00
41830;BME280;38614;43.472;23.936;2023-01-30T08:06:11;100606.69;;;2.34;100.00
41830;BME280;38614;43.472;23.936;2023-01-30T08:09:00;100618.13;;;2.74;100.00
41830;BME280;38614;43.472;23.936;2023-01-30T08:11:47;100622.47;;;2.75;100.00
41830;BME280;38614;43.472;23.936;2023-01-30T08:14:35;100595.69;;;2.39;100.00
41830;BME280;38614;43.472;23.936;2023-01-30T08:17:23;100605.88;;;2.52;100.00
41830;BME280;38614;43.472;23.936;2023-01-30T08:20:11;100610.06;;;2.45;100.00
41830;BME280;38614;43.472;23.936;2023-01-30T08:23:03;100586.03;;;2.28;100.00
41830;BME280;38614;43.472;23.936;2023-01-30T08:25:55;100610.81;;;2.50;100.00
41830;BME280;38614;43.472;23.936;2023-01-30T08:28:43;100587.44;;;2.44;100.00
41830;BME280;38614;43.472;23.936;2023-01-30T08:31:31;100603.66;;;2.92;100.00
41830;BME280;38614;43.472;23.936;2023-01-30T08:34:19;100592.06;;;3.00;100.00
41830;BME280;38614;43.472;23.936;2023-01-30T08:37:07;100601.91;;;3.15;100.00
41830;BME280;38614;43.472;23.936;2023-01-30T08:39:54;100586.94;;;3.12;100.00
41830;BME280;38614;43.472;23.936;2023-01-30T08:42:45;100599.81;;;2.93;100.00
41830;BME280;38614;43.472;23.936;2023-01-30T08:45:33;100584.63;;;2.31;100.00
41830;BME280;38614;43.472;23.936;2023-01-30T08:48:21;100605.31;;;2.32;100.00
41830;BME280;38614;43.472;23.936;2023-01-30T08:51:09;100614.13;;;2.66;100.00
41830;BME280;38614;43.472;23.936;2023-01-30T08:53:58;100601.91;;;2.45;100.00
41830;BME280;38614;43.472;23.936;2023-01-30T08:56:45;100601.94;;;2.40;100.00
41830;BME280;38614;43.472;23.936;2023-01-30T08:59:33;100604.25;;;2.51;100.00
41830;BME280;38614;43.472;23.936;2023-01-30T09:02:21;100607.25;;;2.50;100.00
41830;BME280;38614;43.472;23.936;2023-01-30T09:05:09;100576.94;;;2.33;100.00
41830;BME280;38614;43.472;23.936;2023-01-30T09:08:00;100597.75;;;2.85;100.00
41830;BME280;38614;43.472;23.936;2023-01-30T09:10:47;100601.72;;;2.93;100.00
41830;BME280;38614;43.472;23.936;2023-01-30T09:13:35;100587.59;;;2.72;100.00
41830;BME280;38614;43.472;23.936;2023-01-30T09:16:25;100601.25;;;2.72;100.00
41830;BME280;38614;43.472;23.936;2023-01-30T09:19:13;100607.56;;;2.67;100.00
41830;BME280;38614;43.472;23.936;2023-01-30T09:22:00;100598.88;;;2.65;100.00
41830;BME280;38614;43.472;23.936;2023-01-30T09:24:48;100595.69;;;2.58;100.00
41830;BME280;38614;43.472;23.936;2023-01-30T09:27:41;100601.16;;;2.77;100.00
41830;BME280;38614;43.472;23.936;2023-01-30T09:30:30;100579.63;;;2.75;100.00
41830;BME280;38614;43.472;23.936;2023-01-30T09:33:18;100586.53;;;2.86;100.00
41830;BME280;38614;43.472;23.936;2023-01-30T09:36:07;100583.59;;;2.83;100.00
41830;BME280;38614;43.472;23.936;2023-01-30T09:38:57;100550.94;;;2.59;100.00
41830;BME280;38614;43.472;23.936;2023-01-30T09:50:45;100566.63;;;2.86;100.00
41830;BME280;38614;43.472;23.936;2023-01-30T09:56:22;100542.72;;;2.78;100.00
41830;BME280;38614;43.472;23.936;2023-01-30T09:59:20;100531.91;;;2.73;100.00
41830;BME280;38614;43.472;23.936;2023-01-30T10:05:36;100505.44;;;2.73;100.00
41830;BME280;38614;43.472;23.936;2023-01-30T10:12:00;100522.00;;;2.77;100.00
41830;BME280;38614;43.472;23.936;2023-01-30T10:18:09;100507.03;;;2.74;100.00
41830;BME280;38614;43.472;23.936;2023-01-30T10:21:30;100484.09;;;2.75;100.00
41830;BME280;38614;43.472;23.936;2023-01-30T10:27:19;100425.19;;;2.23;100.00
41830;BME280;38614;43.472;23.936;2023-01-30T10:30:13;100467.50;;;2.39;100.00
41830;BME280;38614;43.472;23.936;2023-01-30T10:33:09;100452.09;;;2.29;100.00
41830;BME280;38614;43.472;23.936;2023-01-30T10:36:15;100468.47;;;2.29;100.00
41830;BME280;38614;43.472;23.936;2023-01-30T10:39:17;100448.19;;;2.36;100.00
41830;BME280;38614;43.472;23.936;2023-01-30T10:42:16;100466.53;;;2.49;100.00
41830;BME280;38614;43.472;23.936;2023-01-30T10:45:17;100453.56;;;2.73;100.00
41830;BME280;38614;43.472;23.936;2023-01-30T10:51:04;100436.34;;;2.59;100.00
41830;BME280;38614;43.472;23.936;2023-01-30T10:57:23;100430.13;;;2.72;100.00
41830;BME280;38614;43.472;23.936;2023-01-30T11:00:29;100409.53;;;2.47;100.00
41830;BME280;38614;43.472;23.936;2023-01-30T11:06:22;100398.72;;;2.42;100.00
41830;BME280;38614;43.472;23.936;2023-01-30T11:09:10;100399.75;;;2.46;100.00
41830;BME280;38614;43.472;23.936;2023-01-30T11:11:57;100399.63;;;2.84;100.00
41830;BME280;38614;43.472;23.936;2023-01-30T11:17:45;100363.75;;;2.91;100.00
41830;BME280;38614;43.472;23.936;2023-01-30T11:20:43;100359.69;;;2.74;100.00
41830;BME280;38614;43.472;23.936;2023-01-30T11:23:39;100330.47;;;2.75;100.00
41830;BME280;38614;43.472;23.936;2023-01-30T11:26:35;100347.66;;;3.03;100.00
41830;BME280;38614;43.472;23.936;2023-01-30T11:29:33;100350.47;;;3.25;100.00
41830;BME280;38614;43.472;23.936;2023-01-30T11:32:26;100334.72;;;3.08;100.00
41830;BME280;38614;43.472;23.936;2023-01-30T11:38:36;100335.31;;;3.05;100.00
41830;BME280;38614;43.472;23.936;2023-01-30T11:41:28;100325.78;;;3.30;100.00
41830;BME280;38614;43.472;23.936;2023-01-30T11:44:15;100325.31;;;2.87;100.00
41830;BME280;38614;43.472;23.936;2023-01-30T11:47:08;100331.38;;;2.98;100.00
41830;BME280;38614;43.472;23.936;2023-01-30T11:49:58;100305.59;;;2.76;100.00
41830;BME280;38614;43.472;23.936;2023-01-30T11:53:03;100307.81;;;2.88;100.00
41830;BME280;38614;43.472;23.936;2023-01-30T11:56:21;100306.41;;;2.77;100.00
41830;BME280;38614;43.472;23.936;2023-01-30T12:02:30;100297.13;;;2.64;100.00
41830;BME280;38614;43.472;23.936;2023-01-30T12:05:33;100288.72;;;2.74;100.00
41830;BME280;38614;43.472;23.936;2023-01-30T12:08:41;100258.72;;;2.61;100.00
41830;BME280;38614;43.472;23.936;2023-01-30T12:14:36;100268.91;;;2.55;100.00
41830;BME280;38614;43.472;23.936;2023-01-30T12:20:58;100261.03;;;2.40;100.00
41830;BME280;38614;43.472;23.936;2023-01-30T12:23:58;100261.22;;;2.57;100.00
41830;BME280;38614;43.472;23.936;2023-01-30T12:26:57;100238.00;;;2.73;100.00
41830;BME280;38614;43.472;23.936;2023-01-30T12:30:01;100218.91;;;2.46;100.00
41830;BME280;38614;43.472;23.936;2023-01-30T12:33:03;100233.34;;;2.74;100.00
41830;BME280;38614;43.472;23.936;2023-01-30T12:45:25;100222.38;;;3.01;100.00
41830;BME280;38614;43.472;23.936;2023-01-30T12:58:22;100209.06;;;2.86;100.00
41830;BME280;38614;43.472;23.936;2023-01-30T13:08:02;100192.72;;;2.72;100.00
41830;BME280;38614;43.472;23.936;2023-01-30T13:23:23;100113.44;;;2.55;100.00
41830;BME280;38614;43.472;23.936;2023-01-30T13:26:17;100163.38;;;3.14;100.00
41830;BME280;38614;43.472;23.936;2023-01-30T13:29:39;100182.00;;;3.12;100.00
41830;BME280;38614;43.472;23.936;2023-01-30T13:32:48;100166.63;;;2.80;100.00
41830;BME280;38614;43.472;23.936;2023-01-30T13:35:44;100176.53;;;2.76;100.00
41830;BME280;38614;43.472;23.936;2023-01-30T13:38:33;100164.72;;;2.67;100.00
41830;BME280;38614;43.472;23.936;2023-01-30T13:41:24;100153.75;;;2.44;100.00
41830;BME280;38614;43.472;23.936;2023-01-30T13:44:22;100156.69;;;2.34;100.00
41830;BME280;38614;43.472;23.936;2023-01-30T14:00:31;100162.25;;;2.15;100.00
41830;BME280;38614;43.472;23.936;2023-01-30T14:03:24;100163.38;;;2.14;100.00
41830;BME280;38614;43.472;23.936;2023-01-30T14:09:20;100153.66;;;2.36;100.00
41830;BME280;38614;43.472;23.936;2023-01-30T14:12:24;100150.72;;;2.05;100.00
41830;BME280;38614;43.472;23.936;2023-01-30T14:18:34;100138.00;;;2.14;100.00
41830;BME280;38614;43.472;23.936;2023-01-30T14:21:23;100143.38;;;2.05;100.00
41830;BME280;38614;43.472;23.936;2023-01-30T14:24:19;100106.81;;;1.92;100.00
41830;BME280;38614;43.472;23.936;2023-01-30T14:27:24;100123.16;;;1.92;100.00
41830;BME280;38614;43.472;23.936;2023-01-30T14:39:39;100109.81;;;1.63;100.00
41830;BME280;38614;43.472;23.936;2023-01-30T14:42:29;100118.09;;;1.58;100.00
41830;BME280;38614;43.472;23.936;2023-01-30T14:45:53;100109.50;;;1.65;100.00
41830;BME280;38614;43.472;23.936;2023-01-30T14:51:48;100101.63;;;1.50;100.00
41830;BME280;38614;43.472;23.936;2023-01-30T14:54:49;100079.19;;;1.39;100.00
41830;BME280;38614;43.472;23.936;2023-01-30T14:57:38;100108.25;;;1.43;100.00
41830;BME280;38614;43.472;23.936;2023-01-30T15:00:29;100106.59;;;1.29;100.00
41830;BME280;38614;43.472;23.936;2023-01-30T15:03:19;100079.84;;;1.17;100.00
41830;BME280;38614;43.472;23.936;2023-01-30T15:06:07;100104.50;;;1.39;100.00
41830;BME280;38614;43.472;23.936;2023-01-30T15:08:55;100073.81;;;1.20;100.00
41830;BME280;38614;43.472;23.936;2023-01-30T15:11:49;100093.00;;;1.29;100.00
41830;BME280;38614;43.472;23.936;2023-01-30T15:25:17;100089.75;;;1.13;100.00
41830;BME280;38614;43.472;23.936;2023-01-30T15:33:47;100042.94;;;0.78;100.00
41830;BME280;38614;43.472;23.936;2023-01-30T15:36:35;100073.50;;;0.89;100.00
41830;BME280;38614;43.472;23.936;2023-01-30T15:39:25;100060.13;;;0.74;100.00
41830;BME280;38614;43.472;23.936;2023-01-30T15:42:14;100073.16;;;0.77;100.00
41830;BME280;38614;43.472;23.936;2023-01-30T15:45:07;100069.81;;;0.66;100.00
41830;BME280;38614;43.472;23.936;2023-01-30T15:51:12;100061.03;;;0.69;100.00
41830;BME280;38614;43.472;23.936;2023-01-30T15:54:09;100065.69;;;0.69;100.00
41830;BME280;38614;43.472;23.936;2023-01-30T15:56:58;100066.94;;;0.57;100.00
41830;BME280;38614;43.472;23.936;2023-01-30T15:59:49;100067.00;;;0.52;100.00
41830;BME280;38614;43.472;23.936;2023-01-30T16:02:41;100058.03;;;0.52;100.00
41830;BME280;38614;43.472;23.936;2023-01-30T16:05:30;100058.53;;;0.54;100.00
41830;BME280;38614;43.472;23.936;2023-01-30T16:08:24;100052.38;;;0.67;100.00
41830;BME280;38614;43.472;23.936;2023-01-30T16:11:37;100030.69;;;0.43;100.00
41830;BME280;38614;43.472;23.936;2023-01-30T16:14:29;100047.81;;;0.44;100.00
41830;BME280;38614;43.472;23.936;2023-01-30T16:17:29;100026.44;;;0.18;100.00
41830;BME280;38614;43.472;23.936;2023-01-30T16:20:18;100026.88;;;0.25;100.00
41830;BME280;38614;43.472;23.936;2023-01-30T16:23:26;100048.41;;;0.41;100.00
41830;BME280;38614;43.472;23.936;2023-01-30T16:26:22;100026.06;;;0.25;100.00
41830;BME280;38614;43.472;23.936;2023-01-30T16:29:22;100038.41;;;0.36;100.00
41830;BME280;38614;43.472;23.936;2023-01-30T16:32:13;100036.50;;;0.37;100.00
41830;BME280;38614;43.472;23.936;2023-01-30T16:41:37;100031.16;;;0.32;100.00
41830;BME280;38614;43.472;23.936;2023-01-30T16:44:30;100020.28;;;0.32;100.00
41830;BME280;38614;43.472;23.936;2023-01-30T16:47:27;100008.44;;;0.22;100.00
41830;BME280;38614;43.472;23.936;2023-01-30T16:50:21;100012.84;;;0.18;100.00
41830;BME280;38614;43.472;23.936;2023-01-30T16:53:16;99990.75;;;0.06;100.00
41830;BME280;38614;43.472;23.936;2023-01-30T16:56:08;100016.50;;;0.27;100.00
41830;BME280;38614;43.472;23.936;2023-01-30T16:58:58;100004.41;;;0.01;100.00
41830;BME280;38614;43.472;23.936;2023-01-30T17:01:47;100008.91;;;0.11;100.00
41830;BME280;38614;43.472;23.936;2023-01-30T17:04:37;99976.78;;;-0.25;100.00
41830;BME280;38614;43.472;23.936;2023-01-30T17:07:36;99996.69;;;0.08;100.00
41830;BME280;38614;43.472;23.936;2023-01-30T17:13:34;100008.88;;;-0.08;100.00
41830;BME280;38614;43.472;23.936;2023-01-30T17:16:33;99995.19;;;-0.22;100.00
41830;BME280;38614;43.472;23.936;2023-01-30T17:19:21;100001.44;;;-0.21;100.00
41830;BME280;38614;43.472;23.936;2023-01-30T17:22:16;99995.47;;;-0.23;100.00
41830;BME280;38614;43.472;23.936;2023-01-30T17:25:38;99987.38;;;-0.29;100.00
41830;BME280;38614;43.472;23.936;2023-01-30T17:28:27;99989.03;;;-0.27;100.00
41830;BME280;38614;43.472;23.936;2023-01-30T17:31:23;99980.19;;;-0.38;100.00
41830;BME280;38614;43.472;23.936;2023-01-30T17:34:16;99980.47;;;-0.40;100.00
41830;BME280;38614;43.472;23.936;2023-01-30T17:37:23;99973.88;;;-0.34;100.00
41830;BME280;38614;43.472;23.936;2023-01-30T17:40:18;99983.34;;;-0.31;100.00
41830;BME280;38614;43.472;23.936;2023-01-30T17:43:20;99938.28;;;-0.51;100.00
41830;BME280;38614;43.472;23.936;2023-01-30T17:46:11;99970.72;;;-0.41;100.00
41830;BME280;38614;43.472;23.936;2023-01-30T17:49:00;99969.09;;;-0.42;100.00
41830;BME280;38614;43.472;23.936;2023-01-30T17:51:48;99970.72;;;-0.41;100.00
41830;BME280;38614;43.472;23.936;2023-01-30T17:54:39;99965.59;;;-0.42;100.00
41830;BME280;38614;43.472;23.936;2023-01-30T17:57:27;99954.25;;;-0.49;100.00
41830;BME280;38614;43.472;23.936;2023-01-30T18:00:18;99966.97;;;-0.45;100.00